Terminal Aerodrome Forecast
Issued by NWS

Home | Current Version | Previous Version | Text Only | Print | Product List | Glossary On
Versions: 1 2 3 4 5 6 7 8 9 10 11 12 13 14 15
000
FTUS46 KPDT 192200 AAA
TAFBDN
TAF AMD
KBDN 192223Z 1922/2018 24018G26KT P6SM SCT060 BKN130
     FM200300 26012G19KT P6SM SCT060
     FM200600 22006KT P6SM FEW250=

USA.gov is the U.S. government's official web portal to all federal, state and local government web resources and services.